createdAt,value
2023-02-19T00:00:04.519Z,12.00
2023-02-19T00:02:32.854Z,12.40
2023-02-19T00:05:01.124Z,12.30
2023-02-19T00:07:29.435Z,12.10
2023-02-19T00:09:59.058Z,12.10
2023-02-19T00:12:27.409Z,11.70
2023-02-19T00:14:57.151Z,11.90
2023-02-19T00:17:25.458Z,12.10
2023-02-19T00:19:53.796Z,12.30
2023-02-19T00:22:22.390Z,12.10
2023-02-19T00:24:50.997Z,11.70
2023-02-19T00:27:20.665Z,11.60
2023-02-19T00:29:50.006Z,11.90
2023-02-19T00:32:18.322Z,12.10
2023-02-19T00:34:46.850Z,12.60
2023-02-19T00:37:15.190Z,12.80
2023-02-19T00:39:43.441Z,12.10
2023-02-19T00:42:11.722Z,12.20
2023-02-19T00:44:41.370Z,12.30
2023-02-19T00:47:09.686Z,11.90
2023-02-19T00:49:37.957Z,12.80
2023-02-19T00:52:06.451Z,11.70
2023-02-19T00:54:35.073Z,11.70
2023-02-19T00:57:03.407Z,12.00
2023-02-19T00:59:31.685Z,12.10
2023-02-19T01:02:01.366Z,12.10
2023-02-19T01:04:29.745Z,11.70
2023-02-19T01:06:58.080Z,11.90
2023-02-19T01:09:26.360Z,11.60
2023-02-19T01:11:54.678Z,12.30
2023-02-19T01:14:22.965Z,12.40
2023-02-19T01:16:51.292Z,12.40
2023-02-19T01:19:20.994Z,12.60
2023-02-19T01:21:49.570Z,12.30
2023-02-19T01:24:17.919Z,11.90
2023-02-19T01:26:46.263Z,12.20
2023-02-19T01:29:14.534Z,12.00
2023-02-19T01:31:43.285Z,12.30
2023-02-19T01:34:13.391Z,12.60
2023-02-19T01:36:43.064Z,11.60
2023-02-19T01:39:12.528Z,12.10
2023-02-19T01:41:43.014Z,12.00
2023-02-19T01:45:20.070Z,12.00
2023-02-19T01:47:50.580Z,11.50
2023-02-19T01:50:18.992Z,11.80
2023-02-19T01:52:49.442Z,12.40
2023-02-19T01:55:17.790Z,12.30
2023-02-19T01:57:50.880Z,12.00
2023-02-19T02:00:20.292Z,11.70
2023-02-19T02:02:53.450Z,11.70
2023-02-19T02:05:36.338Z,11.90
2023-02-19T02:08:24.149Z,12.50
2023-02-19T02:10:53.825Z,12.10
2023-02-19T02:13:22.880Z,11.40
2023-02-19T02:16:01.528Z,11.90
2023-02-19T02:18:43.550Z,11.50
2023-02-19T02:21:37.469Z,11.70
2023-02-19T02:24:28.882Z,12.10
2023-02-19T02:27:18.821Z,11.90
2023-02-19T02:30:19.338Z,11.80
2023-02-19T02:32:55.839Z,12.40
2023-02-19T02:35:28.093Z,12.60
2023-02-19T02:38:03.615Z,12.30
2023-02-19T02:40:32.610Z,13.00
2023-02-19T02:43:02.031Z,12.80
2023-02-19T02:45:37.702Z,12.70
2023-02-19T02:48:16.015Z,12.60
2023-02-19T02:50:48.236Z,12.60
2023-02-19T02:53:41.335Z,11.90
2023-02-19T02:56:11.469Z,12.40
2023-02-19T02:58:40.191Z,12.70
2023-02-19T03:01:23.997Z,12.70
2023-02-19T03:03:58.925Z,12.70
2023-02-19T03:06:30.071Z,13.10
2023-02-19T03:09:06.372Z,13.20
2023-02-19T03:11:55.983Z,12.90
2023-02-19T03:14:50.018Z,13.10
2023-02-19T03:17:42.284Z,12.50
2023-02-19T03:20:16.019Z,12.60
2023-02-19T03:22:46.025Z,12.10
2023-02-19T03:25:37.226Z,12.20
2023-02-19T03:28:09.525Z,12.40
2023-02-19T03:30:42.673Z,12.60
2023-02-19T03:33:16.917Z,12.20
2023-02-19T03:35:49.849Z,12.60
2023-02-19T03:38:23.767Z,12.70
2023-02-19T03:41:01.039Z,12.30
2023-02-19T03:43:41.901Z,13.20
2023-02-19T03:46:15.551Z,12.90
2023-02-19T03:48:53.245Z,12.50
2023-02-19T03:51:34.765Z,12.60
2023-02-19T03:54:14.115Z,12.10
2023-02-19T03:56:49.007Z,13.20
2023-02-19T03:59:22.249Z,12.70
2023-02-19T04:01:57.529Z,13.30
2023-02-19T04:04:34.223Z,12.20
2023-02-19T04:07:02.813Z,12.20
2023-02-19T04:09:37.192Z,12.60
2023-02-19T04:12:07.647Z,13.00
2023-02-19T04:14:41.074Z,13.10
2023-02-19T04:17:18.821Z,13.50
2023-02-19T04:19:51.950Z,13.50
2023-02-19T04:22:23.226Z,13.60
2023-02-19T04:24:55.529Z,13.50
2023-02-19T04:27:23.959Z,12.70
2023-02-19T04:29:52.216Z,13.00
2023-02-19T04:32:20.710Z,13.20
2023-02-19T04:34:50.953Z,12.50
2023-02-19T04:37:20.201Z,12.20
2023-02-19T04:39:48.501Z,12.40
2023-02-19T04:42:16.965Z,12.30
2023-02-19T04:44:45.504Z,12.60
2023-02-19T04:47:13.830Z,12.60
2023-02-19T04:49:42.123Z,12.20
2023-02-19T04:52:12.119Z,12.60
2023-02-19T04:54:40.408Z,12.80
2023-02-19T04:57:08.768Z,13.00
2023-02-19T04:59:37.091Z,13.60
2023-02-19T05:02:05.418Z,13.30
2023-02-19T05:04:33.927Z,12.80
2023-02-19T05:07:02.377Z,13.20
2023-02-19T05:09:32.056Z,13.00
2023-02-19T05:12:00.369Z,12.70
2023-02-19T05:14:28.731Z,13.00
2023-02-19T05:16:57.066Z,13.50
2023-02-19T05:19:25.377Z,13.00
2023-02-19T05:21:53.762Z,13.60
2023-02-19T05:24:22.243Z,13.70
2023-02-19T05:26:52.186Z,13.30
2023-02-19T05:29:20.516Z,13.40
2023-02-19T05:31:49.265Z,12.40
2023-02-19T05:34:17.614Z,12.60
2023-02-19T05:36:45.930Z,12.60
2023-02-19T05:39:14.352Z,13.30
2023-02-19T05:41:42.688Z,13.90
2023-02-19T05:44:13.012Z,13.20
2023-02-19T05:46:41.442Z,13.70
2023-02-19T05:49:09.792Z,13.30
2023-02-19T05:51:38.171Z,13.70
2023-02-19T05:54:06.820Z,14.20
2023-02-19T05:56:37.239Z,13.10
2023-02-19T05:59:09.700Z,11.80
2023-02-19T06:01:39.379Z,11.80
2023-02-19T06:04:07.766Z,12.30
2023-02-19T06:06:37.196Z,12.90
2023-02-19T06:09:05.812Z,12.90
2023-02-19T06:11:35.121Z,13.40
2023-02-19T06:14:03.578Z,13.00
2023-02-19T06:16:33.690Z,12.10
2023-02-19T06:19:05.710Z,12.20
2023-02-19T06:21:34.035Z,12.70
2023-02-19T06:24:07.599Z,13.10
2023-02-19T06:26:36.733Z,12.90
2023-02-19T06:29:05.273Z,13.30
2023-02-19T06:31:33.943Z,13.20
2023-02-19T06:34:06.803Z,13.20
2023-02-19T06:36:35.400Z,12.80
2023-02-19T06:39:06.853Z,12.00
2023-02-19T06:41:35.299Z,12.40
2023-02-19T06:44:03.736Z,13.10
2023-02-19T06:46:32.067Z,12.70
2023-02-19T06:49:00.529Z,13.60
2023-02-19T06:51:30.215Z,13.70
2023-02-19T06:53:58.531Z,13.80
2023-02-19T06:56:29.104Z,13.00
2023-02-19T06:59:00.745Z,13.40
2023-02-19T07:01:30.689Z,13.20
2023-02-19T07:03:59.515Z,13.80
2023-02-19T07:06:30.660Z,14.00
2023-02-19T07:09:00.741Z,13.20
2023-02-19T07:11:33.132Z,13.70
2023-02-19T07:14:03.956Z,13.40
2023-02-19T07:16:32.400Z,12.80
2023-02-19T07:19:02.158Z,12.70
2023-02-19T07:21:32.101Z,12.90
2023-02-19T07:24:00.427Z,13.00
2023-02-19T07:26:28.826Z,13.60
2023-02-19T07:28:57.230Z,13.10
2023-02-19T07:31:26.156Z,13.40
2023-02-19T07:33:56.599Z,13.60
2023-02-19T07:36:26.076Z,13.60
2023-02-19T07:39:00.691Z,13.00
2023-02-19T07:41:29.396Z,12.60
2023-02-19T07:43:57.783Z,13.00
2023-02-19T07:46:26.549Z,12.60
2023-02-19T07:48:54.903Z,13.10
2023-02-19T07:51:23.637Z,13.00
2023-02-19T07:53:52.400Z,13.10
2023-02-19T07:56:22.356Z,13.70
2023-02-19T07:58:50.802Z,13.90
2023-02-19T08:01:43.237Z,14.30
2023-02-19T08:04:13.576Z,14.20
2023-02-19T08:06:42.555Z,13.80
2023-02-19T08:09:11.284Z,13.50
2023-02-19T08:11:58.500Z,13.80
2023-02-19T08:14:27.700Z,13.10
2023-02-19T08:16:56.774Z,13.20
2023-02-19T08:19:25.312Z,14.10
2023-02-19T08:21:54.018Z,14.50
2023-02-19T08:24:22.423Z,14.20
2023-02-19T08:26:52.111Z,14.30
2023-02-19T08:29:20.591Z,14.60
2023-02-19T08:31:49.244Z,14.70
2023-02-19T08:34:17.646Z,14.50
2023-02-19T08:36:45.946Z,14.30
2023-02-19T08:39:14.254Z,13.90
2023-02-19T08:41:42.544Z,13.90
2023-02-19T08:44:12.225Z,13.90
2023-02-19T08:46:40.508Z,13.90
2023-02-19T08:49:08.825Z,13.20
2023-02-19T08:51:37.124Z,13.40
2023-02-19T08:54:05.957Z,13.70
2023-02-19T08:56:34.295Z,13.00
2023-02-19T08:59:02.649Z,12.80
2023-02-19T09:01:41.003Z,12.90
2023-02-19T09:04:13.123Z,12.60
2023-02-19T09:06:41.749Z,12.50
2023-02-19T09:09:10.363Z,13.40
2023-02-19T09:11:40.548Z,12.90
2023-02-19T09:14:09.339Z,12.40
2023-02-19T09:16:38.196Z,12.50
2023-02-19T09:19:06.486Z,12.70
2023-02-19T09:21:36.152Z,12.80
2023-02-19T09:24:04.819Z,12.70
2023-02-19T09:26:33.135Z,12.30
2023-02-19T09:29:01.412Z,13.10
2023-02-19T09:31:29.791Z,12.30
2023-02-19T09:33:58.098Z,12.80
2023-02-19T09:36:26.423Z,12.70
2023-02-19T09:38:56.051Z,12.00
2023-02-19T09:41:30.276Z,12.60
2023-02-19T09:44:00.884Z,13.30
2023-02-19T09:46:34.170Z,12.70
2023-02-19T09:49:08.087Z,12.90
2023-02-19T09:51:39.069Z,13.10
2023-02-19T09:54:24.969Z,12.20
2023-02-19T09:56:56.121Z,12.30
2023-02-19T09:59:30.000Z,12.60
2023-02-19T10:02:05.756Z,12.80
2023-02-19T10:04:34.051Z,12.40
2023-02-19T10:07:03.847Z,12.70
2023-02-19T10:09:33.544Z,13.50
2023-02-19T10:12:02.474Z,14.20
2023-02-19T10:14:37.433Z,13.20
2023-02-19T10:17:08.153Z,13.30
2023-02-19T10:19:37.848Z,13.70
2023-02-19T10:22:06.757Z,14.00
2023-02-19T10:24:38.426Z,14.00
2023-02-19T10:27:13.178Z,13.30
2023-02-19T10:29:41.672Z,13.80
2023-02-19T10:32:24.063Z,13.20
2023-02-19T10:35:11.185Z,13.50
2023-02-19T10:37:46.015Z,12.90
2023-02-19T10:40:20.655Z,12.80
2023-02-19T10:42:51.739Z,13.10
2023-02-19T10:45:24.549Z,13.40
2023-02-19T10:47:53.982Z,13.80
2023-02-19T10:50:29.222Z,14.10
2023-02-19T10:52:59.947Z,14.10
2023-02-19T10:55:36.031Z,14.70
2023-02-19T10:58:26.465Z,14.00
2023-02-19T11:01:20.792Z,13.10
2023-02-19T11:03:51.493Z,13.10
2023-02-19T11:06:22.721Z,13.00
2023-02-19T11:08:57.929Z,13.60
2023-02-19T11:11:35.287Z,13.60
2023-02-19T11:14:14.748Z,13.60
2023-02-19T11:16:50.034Z,13.70
2023-02-19T11:19:38.953Z,14.50
2023-02-19T11:22:31.974Z,15.00
2023-02-19T11:25:08.734Z,15.10
2023-02-19T11:27:56.650Z,15.30
2023-02-19T11:30:41.487Z,15.20
2023-02-19T11:33:36.984Z,14.70
2023-02-19T11:36:31.128Z,14.40
2023-02-19T11:39:03.852Z,13.00
2023-02-19T11:42:08.722Z,13.90
2023-02-19T11:44:57.616Z,12.80
2023-02-19T11:48:02.287Z,12.60
2023-02-19T11:50:47.627Z,12.60
2023-02-19T11:53:26.153Z,12.30
2023-02-19T11:56:13.026Z,12.90
2023-02-19T11:59:02.582Z,13.10
2023-02-19T12:02:04.208Z,13.40
2023-02-19T12:05:29.758Z,13.70
2023-02-19T12:08:55.138Z,13.90
2023-02-19T12:11:56.294Z,13.00
2023-02-19T12:15:00.439Z,13.70
2023-02-19T12:17:49.026Z,13.80
2023-02-19T12:20:31.714Z,13.30
2023-02-19T12:23:55.763Z,12.80
2023-02-19T12:26:29.771Z,12.60
2023-02-19T12:29:23.687Z,12.00
2023-02-19T12:32:22.439Z,12.10
2023-02-19T12:35:39.479Z,12.40
2023-02-19T12:38:22.567Z,13.40
2023-02-19T12:41:19.876Z,13.60
2023-02-19T12:43:56.420Z,13.90
2023-02-19T12:46:32.962Z,14.00
2023-02-19T12:49:08.382Z,13.70
2023-02-19T12:51:45.955Z,14.60
2023-02-19T12:54:23.835Z,15.00
2023-02-19T12:57:01.371Z,15.10
2023-02-19T12:59:37.712Z,15.00
2023-02-19T13:02:16.018Z,14.80
2023-02-19T13:04:50.698Z,14.60
2023-02-19T13:07:25.149Z,14.90
2023-02-19T13:09:59.010Z,14.60
2023-02-19T13:12:31.751Z,14.30
2023-02-19T13:15:03.873Z,13.80
2023-02-19T13:17:42.507Z,14.30
2023-02-19T13:20:25.798Z,14.80
2023-02-19T13:23:22.540Z,14.70
2023-02-19T13:26:15.790Z,14.20
2023-02-19T13:29:40.840Z,14.80
2023-02-19T13:32:31.448Z,15.00
2023-02-19T13:35:29.203Z,14.70
2023-02-19T13:38:03.711Z,15.10
2023-02-19T13:40:35.897Z,14.90
2023-02-19T13:43:07.624Z,14.70
2023-02-19T13:45:40.969Z,15.20
2023-02-19T13:48:26.519Z,15.20
2023-02-19T13:51:47.691Z,15.30
2023-02-19T13:54:28.055Z,15.30
2023-02-19T13:57:27.690Z,15.50
2023-02-19T13:59:57.304Z,15.10
2023-02-19T14:02:35.215Z,13.50
2023-02-19T14:05:10.577Z,13.70
2023-02-19T14:08:03.680Z,14.00
2023-02-19T14:11:03.631Z,13.80
2023-02-19T14:14:06.834Z,13.50
2023-02-19T14:16:52.744Z,14.10
2023-02-19T14:20:01.294Z,14.70
2023-02-19T14:23:09.497Z,14.90
2023-02-19T14:25:52.791Z,13.60
2023-02-19T14:28:36.547Z,14.00
2023-02-19T14:31:17.962Z,14.70
2023-02-19T14:33:50.809Z,14.80
2023-02-19T14:36:48.653Z,14.20
2023-02-19T14:39:20.953Z,14.60
2023-02-19T14:41:52.545Z,14.80
2023-02-19T14:44:25.010Z,14.80
2023-02-19T14:46:58.614Z,14.70
2023-02-19T14:49:34.775Z,14.50
2023-02-19T14:52:09.490Z,14.70
2023-02-19T14:54:44.240Z,14.10
2023-02-19T14:57:18.930Z,14.90
2023-02-19T14:59:58.676Z,14.50
2023-02-19T15:02:28.882Z,14.80
2023-02-19T15:04:58.047Z,15.00
2023-02-19T15:07:31.208Z,14.70
2023-02-19T15:10:05.557Z,14.90
2023-02-19T15:12:42.828Z,15.00
2023-02-19T15:15:19.596Z,15.20
2023-02-19T15:17:48.379Z,15.40
2023-02-19T15:20:21.590Z,15.00
2023-02-19T15:22:50.364Z,15.10
2023-02-19T15:25:21.934Z,15.00
2023-02-19T15:27:51.197Z,14.70
2023-02-19T15:30:28.527Z,14.40
2023-02-19T15:32:58.976Z,14.40
2023-02-19T15:35:29.994Z,14.80
2023-02-19T15:37:58.603Z,14.90
2023-02-19T15:40:32.478Z,14.70
2023-02-19T15:43:01.952Z,14.90
2023-02-19T15:45:38.511Z,14.80
2023-02-19T15:48:12.849Z,14.40
2023-02-19T15:50:48.178Z,14.20
2023-02-19T15:53:20.045Z,14.70
2023-02-19T15:55:58.808Z,14.90
2023-02-19T15:58:32.672Z,15.10
2023-02-19T16:01:05.902Z,15.10
2023-02-19T16:03:34.864Z,15.00
2023-02-19T16:06:06.456Z,14.80
2023-02-19T16:08:37.365Z,14.80
2023-02-19T16:11:08.556Z,14.10
2023-02-19T16:13:37.439Z,14.10
2023-02-19T16:16:22.719Z,14.20
2023-02-19T16:18:53.014Z,14.20
2023-02-19T16:21:24.448Z,13.40
2023-02-19T16:23:59.269Z,13.20
2023-02-19T16:26:28.101Z,13.80
2023-02-19T16:28:57.300Z,13.00
2023-02-19T16:31:27.251Z,11.90
2023-02-19T16:33:58.265Z,11.20
2023-02-19T16:36:37.908Z,11.40
2023-02-19T16:39:23.560Z,12.10
2023-02-19T16:42:16.079Z,11.80
2023-02-19T16:44:45.378Z,11.60
2023-02-19T16:47:41.674Z,11.50
2023-02-19T16:50:16.778Z,11.90
2023-02-19T16:52:55.595Z,11.40
2023-02-19T16:55:24.846Z,12.30
2023-02-19T16:57:53.442Z,11.90
2023-02-19T17:00:24.833Z,11.90
2023-02-19T17:02:58.272Z,12.40
2023-02-19T17:05:30.066Z,11.80
2023-02-19T17:07:58.498Z,12.10
2023-02-19T17:10:29.163Z,12.50
2023-02-19T17:12:57.693Z,12.10
2023-02-19T17:15:25.970Z,12.00
2023-02-19T17:17:55.710Z,11.70
2023-02-19T17:20:27.735Z,11.50
2023-02-19T17:22:56.496Z,12.30
2023-02-19T17:25:24.931Z,12.60
2023-02-19T17:27:53.253Z,12.60
2023-02-19T17:30:27.897Z,12.30
2023-02-19T17:32:57.663Z,11.80
2023-02-19T17:35:26.218Z,12.70
2023-02-19T17:37:54.558Z,11.70
2023-02-19T17:48:00.622Z,11.20
2023-02-19T17:53:00.307Z,11.50
2023-02-19T17:55:28.604Z,11.10
2023-02-19T17:57:57.017Z,11.10
2023-02-19T18:00:28.214Z,11.80
2023-02-19T18:07:56.006Z,11.60
2023-02-19T18:10:25.348Z,12.50
2023-02-19T18:12:54.001Z,12.80
2023-02-19T18:15:26.205Z,12.10
2023-02-19T18:17:56.208Z,12.10
2023-02-19T18:20:28.627Z,12.30
2023-02-19T18:22:57.499Z,11.90
2023-02-19T18:25:26.514Z,11.90
2023-02-19T18:27:55.269Z,12.10
2023-02-19T18:30:24.356Z,13.20
2023-02-19T18:32:53.201Z,12.40
2023-02-19T18:35:22.930Z,12.90
2023-02-19T18:37:54.156Z,12.60
2023-02-19T18:40:25.370Z,13.50
2023-02-19T18:42:54.004Z,14.00
2023-02-19T18:45:22.513Z,13.90
2023-02-19T18:47:51.465Z,13.30
2023-02-19T18:50:21.582Z,13.00
2023-02-19T18:52:49.937Z,13.50
2023-02-19T18:57:49.349Z,14.10
2023-02-19T19:00:21.327Z,14.30
2023-02-19T19:02:50.838Z,14.20
2023-02-19T19:05:23.223Z,13.90
2023-02-19T19:07:53.112Z,14.30
2023-02-19T19:12:54.098Z,14.60
2023-02-19T19:15:23.550Z,12.90
2023-02-19T19:17:52.556Z,13.60
2023-02-19T19:20:23.262Z,14.00
2023-02-19T19:22:51.958Z,14.30
2023-02-19T19:25:22.834Z,14.50
2023-02-19T19:27:51.952Z,13.90
2023-02-19T19:30:21.232Z,14.30
2023-02-19T19:32:51.441Z,13.60
2023-02-19T19:35:22.154Z,13.70
2023-02-19T19:37:50.988Z,13.60
2023-02-19T19:40:20.475Z,13.90
2023-02-19T19:42:53.179Z,14.30
2023-02-19T19:45:21.869Z,12.70
2023-02-19T19:47:50.529Z,13.80
2023-02-19T19:50:19.347Z,13.50
2023-02-19T19:52:47.692Z,14.10
2023-02-19T19:55:16.220Z,13.90
2023-02-19T19:57:44.579Z,13.80
2023-02-19T20:00:18.590Z,14.20
2023-02-19T20:02:47.565Z,14.00
2023-02-19T20:05:16.880Z,12.50
2023-02-19T20:07:45.801Z,13.30
2023-02-19T20:10:16.038Z,13.80
2023-02-19T20:12:44.584Z,13.90
2023-02-19T20:15:14.841Z,12.70
2023-02-19T20:17:43.123Z,13.00
2023-02-19T20:20:12.414Z,12.50
2023-02-19T20:22:40.699Z,12.80
2023-02-19T20:25:09.616Z,12.50
2023-02-19T20:27:38.511Z,13.30
2023-02-19T20:30:11.317Z,12.60
2023-02-19T20:32:41.101Z,13.00
2023-02-19T20:35:09.820Z,13.70
2023-02-19T20:37:39.860Z,13.80
2023-02-19T20:40:10.202Z,13.80
2023-02-19T20:42:38.547Z,14.00
2023-02-19T20:45:07.671Z,13.80
2023-02-19T20:47:36.378Z,14.20
2023-02-19T20:50:07.690Z,14.10
2023-02-19T20:52:36.013Z,14.00
2023-02-19T20:55:04.741Z,13.90
2023-02-19T20:57:33.023Z,13.60
2023-02-19T21:00:01.329Z,13.80
2023-02-19T21:02:30.199Z,14.00
2023-02-19T21:04:59.864Z,14.00
2023-02-19T21:07:29.551Z,13.50
2023-02-19T21:09:57.977Z,13.10
2023-02-19T21:12:26.283Z,13.30
2023-02-19T21:14:54.672Z,13.00
2023-02-19T21:17:22.954Z,13.10
2023-02-19T21:19:51.291Z,13.40
2023-02-19T21:22:19.586Z,13.20
2023-02-19T21:24:52.119Z,12.80
2023-02-19T21:27:20.591Z,12.80
2023-02-19T21:29:48.959Z,13.00
2023-02-19T21:32:17.402Z,13.10
2023-02-19T21:34:45.804Z,13.00
2023-02-19T21:37:14.081Z,13.40
2023-02-19T21:39:42.842Z,13.70
2023-02-19T21:42:12.686Z,13.40
2023-02-19T21:44:43.044Z,12.60
2023-02-19T21:47:12.607Z,13.00
2023-02-19T21:49:41.907Z,13.50
2023-02-19T21:52:10.790Z,13.70
2023-02-19T21:54:39.160Z,13.50
2023-02-19T21:57:09.412Z,13.50
2023-02-19T21:59:39.157Z,13.60
2023-02-19T22:02:07.684Z,13.00
2023-02-19T22:04:35.983Z,13.50
2023-02-19T22:07:04.285Z,13.60
2023-02-19T22:09:32.573Z,13.50
2023-02-19T22:12:00.916Z,13.60
2023-02-19T22:14:29.185Z,13.70
2023-02-19T22:16:58.864Z,13.80
2023-02-19T22:19:27.144Z,13.60
2023-02-19T22:21:55.475Z,13.20
2023-02-19T22:24:23.884Z,13.50
2023-02-19T22:26:56.167Z,13.60
2023-02-19T22:29:25.035Z,13.50
2023-02-19T22:31:54.021Z,13.10
2023-02-19T22:34:23.962Z,12.80
2023-02-19T22:36:52.283Z,12.90
2023-02-19T22:39:24.679Z,13.10
2023-02-19T22:41:53.506Z,12.80
2023-02-19T22:44:21.877Z,12.90
2023-02-19T22:46:52.375Z,12.80
2023-02-19T22:49:21.697Z,12.00
2023-02-19T22:51:57.612Z,12.10
2023-02-19T22:54:27.118Z,12.10
2023-02-19T22:56:56.095Z,12.50
2023-02-19T22:59:24.719Z,12.30
2023-02-19T23:01:54.108Z,12.40
2023-02-19T23:04:24.140Z,12.80
2023-02-19T23:06:53.899Z,13.00
2023-02-19T23:09:25.355Z,13.00
2023-02-19T23:11:54.428Z,12.90
2023-02-19T23:14:24.369Z,12.90
2023-02-19T23:16:52.715Z,12.90
2023-02-19T23:19:21.061Z,13.10
2023-02-19T23:21:49.656Z,13.00
2023-02-19T23:24:19.948Z,13.20
2023-02-19T23:26:50.526Z,13.20
2023-02-19T23:29:23.466Z,12.80
2023-02-19T23:31:53.435Z,13.00
2023-02-19T23:34:22.357Z,13.20
2023-02-19T23:36:51.695Z,13.30
2023-02-19T23:39:23.512Z,13.30
2023-02-19T23:41:54.476Z,13.30
2023-02-19T23:44:24.913Z,13.30
2023-02-19T23:46:53.955Z,13.20
2023-02-19T23:49:22.292Z,13.10
2023-02-19T23:51:51.444Z,13.10
2023-02-19T23:54:21.115Z,13.20
2023-02-19T23:56:49.540Z,13.00
2023-02-19T23:59:18.024Z,13.00
